• Join FlightAware (Why Join?)
  • Login
  • US Flag 
01:19AM EDT


 

Airport Tracker/Info


-or-


 

Live Flight TrackerFlight Track Log ✈ WBR2634 ✈ 11-Apr-2014 ✈ KBRL - KORD

Flight Track Log - Related Links

Times and Time Zones

All times are in EDT time to prevent confusion due to time zone crossing. See the WBR2634 flight status page for this flight to view local times or setup timezone preferences in your user account.

Time Position Orientation Groundspeed Altitude Reporting Facility
EDT Latitude Longitude Course Direction KTS MPH feet Rate Location/Type
05:41PM 40.8441 -90.8238 72° East  Level FlightAware Approximate
05:42PM 40.8654 -90.7691 57° Northeast  Level FlightAware Approximate
05:42PM 40.8333 -91.0878 73° East 125 144 2,700  Level Chicago Center
05:43PM 40.8768 -90.7096 72° East  Level FlightAware Approximate
05:43PM 40.8489 -91.0411 66° East 139 160 3,500  Level Chicago Center
05:44PM 40.8910 -90.6505 73° East  Level FlightAware Approximate
05:44PM 40.8617 -90.9958 70° East 138 159 4,100  Level Chicago Center
05:45PM 40.9048 -90.5911 73° East  Level FlightAware Approximate
05:45PM 40.8761 -90.9481 68° East 138 159 4,900  Level Chicago Center
05:46PM 40.9186 -90.5316 73° East  Level FlightAware Approximate
05:46PM 40.8914 -90.8997 67° East 138 159 5,500  Level Chicago Center
05:47PM 40.9323 -90.4722 73° East  Level FlightAware Approximate
05:47PM 40.9092 -90.8411 68° East 140 161 6,600  Level Chicago Center
05:48PM 40.9236 -90.7908 69° East 145 167 7,200 600 Climbing Chicago Center
05:49PM 40.9383 -90.7411 69° East 145 167 7,900 660 Climbing Chicago Center
05:50PM 40.9547 -90.6897 67° East 145 167 8,600 480 Climbing Chicago Center
05:51PM 40.9703 -90.6369 69° East 150 173 9,000 180 Climbing Chicago Center
05:52PM 40.9861 -90.5778 70° East 166 191 9,000  Level Chicago Center
05:53PM 41.0072 -90.5133 67° East 161 185 9,100  Climbing Chicago Center
05:54PM 41.0231 -90.4517 71° East 172 198 9,000 -60 Descending Chicago Center
05:55PM 41.0419 -90.3919 67° East 175 201 9,000  Level Chicago Center
05:56PM 41.0569 -90.3342 71° East 172 198 9,000  Level Chicago Center
05:57PM 41.0742 -90.2764 68° East 169 194 9,000  Level Chicago Center
05:58PM 41.0903 -90.2217 69° East 164 189 9,000  Level Chicago Center
05:59PM 41.1097 -90.1508 70° East 165 190 9,000 -60 Level Chicago Center
06:00PM 41.1269 -90.0900 69° East 170 196 8,900 -60 Descending Chicago Center
06:02PM 41.1453 -90.0328 67° East 170 196 8,900  Level Chicago Center
06:03PM 41.1600 -89.9783 70° East 163 188 9,000  Climbing Chicago Center
06:04PM 41.1764 -89.9231 68° East 162 186 9,000  Level Chicago Center
06:05PM 41.1925 -89.8661 69° East 162 186 9,100  Climbing Chicago Center
06:06PM 41.2078 -89.8108 70° East 162 186 9,100  Level Chicago Center
06:07PM 41.2267 -89.7464 69° East 160 184 9,100  Level Chicago Center
06:08PM 41.2431 -89.6850 70° East 164 189 9,100  Level Chicago Center
06:09PM 41.2597 -89.6225 70° East 172 198 9,100 -60 Level Chicago Center
06:10PM 41.2764 -89.5633 69° East 173 199 9,000  Descending Chicago Center
06:11PM 41.2919 -89.5064 70° East 171 197 9,100  Climbing Chicago Center
06:12PM 41.3094 -89.4497 68° East 170 196 9,100  Level Chicago Center
06:13PM 41.3300 -89.3769 69° East 170 196 9,200  Climbing Chicago Center
06:14PM 41.3453 -89.3117 73° East 178 205 9,100 -60 Descending Chicago Center
06:15PM 41.3633 -89.2514 68° East 178 205 9,100 -240 Level Chicago Center
06:16PM 41.3794 -89.1922 70° East 175 201 8,700 -420 Descending Chicago Center
06:17PM 41.3989 -89.1264 68° East 182 209 8,300 -300 Descending Chicago Center
06:18PM 41.4183 -89.0525 71° East 182 209 8,100 -120 Descending Chicago Center
06:19PM 41.4358 -88.9903 69° East 181 208 8,100  Level Chicago Center
06:20PM 41.4519 -88.9269 71° East 181 208 8,100  Level Chicago Center
06:21PM 41.4694 -88.8653 69° East 181 208 8,100 -60 Level Chicago Center
06:22PM 41.4878 -88.7944 71° East 181 208 8,000 -60 Descending Chicago Center
06:23PM 41.5053 -88.7342 69° East 175 201 8,000  Level Chicago Center
06:24PM 41.5264 -88.6731 65° Northeast 171 197 8,100  Climbing Chicago Center
06:25PM 41.5553 -88.6231 52° Northeast 169 194 8,000 -60 Descending Chicago Center
06:26PM 41.5844 -88.5672 55° Northeast 170 196 8,000  Level Chicago Center
06:27PM 41.6125 -88.5153 54° Northeast 171 197 8,000  Level Chicago Center
06:28PM 41.6411 -88.4581 56° Northeast 171 197 8,000  Level Chicago Center
06:29PM 41.6672 -88.4078 55° Northeast 166 191 8,000  Level Chicago Center
06:31PM 41.6933 -88.3556 56° Northeast 167 192 8,000 -240 Level Chicago Center
06:32PM 41.7236 -88.2997 54° Northeast 169 194 7,500 -540 Descending Chicago Center
06:33PM 41.7536 -88.2400 56° Northeast 189 217 7,000 -300 Descending Chicago Center
06:34PM 41.7853 -88.1797 55° Northeast 187 215 7,000 -60 Level Chicago Center
06:35PM 41.8242 -88.1486 31° Northeast 165 190 6,900  Descending Chicago Center
06:36PM 41.8658 -88.1147 31° Northeast 163 188 7,000  Climbing Chicago Center
06:37PM 41.8758 -88.0508 78° East 173 199 7,000  Level Chicago Center
06:38PM 41.8839 -87.9878 80° East 172 198 7,000  Level Chicago Center
06:39PM 41.8917 -87.9200 81° East 172 198 7,000 -60 Level Chicago Center
06:40PM 41.8908 -87.8561 91° East 172 198 6,900 -480 Descending Chicago Center
06:41PM 41.8897 -87.7842 91° East 180 207 6,100 -1,080 Descending Chicago Center
06:42PM 41.8947 -87.7117 85° East 196 226 4,700 -1,440 Descending Chicago Center
06:43PM 41.9444 -87.7097 North 171 197 3,200 -1,080 Descending Chicago Center
06:44PM 41.9608 -87.7597 294° West 148 170 2,500 -720 Descending Chicago Center
06:45PM 41.9639 -87.8144 274° West 148 170 1,800 -780 Descending Chicago Center
06:46PM 41.9647 -87.8719 271° West 147 169 1,000 -780 Descending Chicago Center
06:48PM 41.9667 -87.9000 312° West  Level FlightAware Approximate